createdAt,value
2022-10-05T00:01:28.710Z,98268.00
2022-10-05T00:04:12.066Z,98261.19
2022-10-05T00:06:42.554Z,98260.78
2022-10-05T00:09:21.133Z,98257.34
2022-10-05T00:11:52.554Z,98269.06
2022-10-05T00:14:27.223Z,98267.31
2022-10-05T00:17:00.827Z,98259.63
2022-10-05T00:19:36.174Z,98259.66
2022-10-05T00:22:15.151Z,98259.03
2022-10-05T00:24:45.798Z,98257.22
2022-10-05T00:27:22.472Z,98246.28
2022-10-05T00:29:55.914Z,98242.09
2022-10-05T00:32:28.769Z,98242.75
2022-10-05T00:35:00.719Z,98239.78
2022-10-05T00:37:31.160Z,98238.72
2022-10-05T00:40:01.559Z,98240.09
2022-10-05T00:42:48.784Z,98244.47
2022-10-05T00:45:24.089Z,98246.78
2022-10-05T00:48:11.578Z,98254.25
2022-10-05T00:51:01.435Z,98251.00
2022-10-05T00:53:45.400Z,98246.78
2022-10-05T00:56:34.556Z,98251.47
2022-10-05T00:59:20.776Z,98244.72
2022-10-05T01:02:00.771Z,98247.97
2022-10-05T01:04:44.983Z,98244.72
2022-10-05T01:07:26.504Z,98234.69
2022-10-05T01:10:06.351Z,98241.38
2022-10-05T01:12:47.665Z,98238.00
2022-10-05T01:15:25.864Z,98247.97
2022-10-05T01:18:05.656Z,98243.97
2022-10-05T01:20:55.567Z,98235.81
2022-10-05T01:24:06.918Z,98222.59
2022-10-05T01:26:51.433Z,98231.50
2022-10-05T01:29:31.892Z,98225.16
2022-10-05T01:32:12.723Z,98219.97
2022-10-05T01:34:49.121Z,98203.19
2022-10-05T01:37:28.541Z,98215.66
2022-10-05T01:40:14.045Z,98217.56
2022-10-05T01:42:59.739Z,98216.22
2022-10-05T01:45:44.360Z,98220.84
2022-10-05T01:48:25.254Z,98224.13
2022-10-05T01:51:07.511Z,98214.38
2022-10-05T01:53:52.912Z,98202.94
2022-10-05T01:56:33.599Z,98209.09
2022-10-05T01:59:16.861Z,98205.16
2022-10-05T02:01:58.355Z,98219.31
2022-10-05T02:05:00.929Z,98215.97
2022-10-05T02:07:33.166Z,98214.53
2022-10-05T02:10:12.581Z,98212.25
2022-10-05T02:12:44.186Z,98208.09
2022-10-05T02:15:19.892Z,98205.59
2022-10-05T02:17:59.751Z,98199.78
2022-10-05T02:20:35.855Z,98206.94
2022-10-05T02:23:12.571Z,98209.88
2022-10-05T02:25:48.461Z,98215.03
2022-10-05T02:28:25.696Z,98216.94
2022-10-05T02:31:01.798Z,98214.69
2022-10-05T02:33:38.298Z,98217.22
2022-10-05T02:36:18.796Z,98211.47
2022-10-05T02:39:05.078Z,98204.00
2022-10-05T02:41:50.504Z,98211.00
2022-10-05T02:44:29.943Z,98193.34
2022-10-05T02:47:10.745Z,98190.09
2022-10-05T02:49:50.805Z,98192.72
2022-10-05T02:52:32.581Z,98193.16
2022-10-05T02:55:10.804Z,98203.31
2022-10-05T02:57:47.854Z,98188.56
2022-10-05T03:00:23.549Z,98189.47
2022-10-05T03:03:05.223Z,98178.84
2022-10-05T03:05:43.719Z,98172.53
2022-10-05T03:08:22.584Z,98170.53
2022-10-05T03:11:03.875Z,98184.88
2022-10-05T03:13:45.807Z,98183.34
2022-10-05T03:16:32.882Z,98179.47
2022-10-05T03:19:19.337Z,98185.78
2022-10-05T03:22:05.278Z,98183.63
2022-10-05T03:25:03.910Z,98184.56
2022-10-05T03:27:46.714Z,98185.81
2022-10-05T03:30:21.919Z,98183.31
2022-10-05T03:33:04.255Z,98180.25
2022-10-05T03:35:47.767Z,98175.31
2022-10-05T03:38:30.895Z,98184.88
2022-10-05T03:41:09.372Z,98174.84
2022-10-05T03:44:07.821Z,98175.00
2022-10-05T03:46:53.150Z,98181.50
2022-10-05T03:49:41.227Z,98182.72
2022-10-05T03:52:19.362Z,98183.34
2022-10-05T03:54:59.561Z,98181.50
2022-10-05T03:57:34.488Z,98185.81
2022-10-05T04:00:15.673Z,98203.22
2022-10-05T04:03:00.987Z,98198.75
2022-10-05T04:05:36.499Z,98199.38
2022-10-05T04:08:13.210Z,98209.84
2022-10-05T04:10:51.265Z,98208.78
2022-10-05T04:13:32.335Z,98202.63
2022-10-05T04:16:09.866Z,98195.72
2022-10-05T04:18:44.597Z,98191.09
2022-10-05T04:21:24.210Z,98202.34
2022-10-05T04:24:01.577Z,98197.72
2022-10-05T04:26:44.154Z,98200.97
2022-10-05T04:29:22.545Z,98194.78
2022-10-05T04:32:10.318Z,98191.41
2022-10-05T04:34:58.099Z,98195.09
2022-10-05T04:37:37.614Z,98201.56
2022-10-05T04:40:22.763Z,98198.19
2022-10-05T04:43:08.971Z,98200.03
2022-10-05T04:46:01.429Z,98202.16
2022-10-05T04:48:51.626Z,98202.78
2022-10-05T04:51:38.581Z,98200.31
2022-10-05T04:54:23.757Z,98196.47
2022-10-05T04:56:59.090Z,98205.53
2022-10-05T05:00:17.445Z,98204.63
2022-10-05T05:03:06.845Z,98201.38
2022-10-05T05:06:15.325Z,98203.69
2022-10-05T05:09:20.788Z,98196.59
2022-10-05T05:12:04.986Z,98209.66
2022-10-05T05:15:00.618Z,98205.84
2022-10-05T05:17:53.744Z,98203.34
2022-10-05T05:20:31.225Z,98202.75
2022-10-05T05:23:11.998Z,98208.91
2022-10-05T05:25:47.002Z,98217.50
2022-10-05T05:28:33.150Z,98218.28
2022-10-05T05:31:15.864Z,98215.06
2022-10-05T05:34:00.698Z,98214.13
2022-10-05T05:36:46.831Z,98208.44
2022-10-05T05:39:27.662Z,98213.06
2022-10-05T05:42:05.371Z,98211.22
2022-10-05T05:44:44.266Z,98208.44
2022-10-05T05:47:24.017Z,98214.31
2022-10-05T05:50:22.843Z,98222.94
2022-10-05T05:52:58.010Z,98216.63
2022-10-05T05:55:34.363Z,98218.00
2022-10-05T05:58:15.299Z,98216.50
2022-10-05T06:00:51.624Z,98216.19
2022-10-05T06:03:33.180Z,98208.78
2022-10-05T06:06:09.188Z,98208.47
2022-10-05T06:08:45.045Z,98221.56
2022-10-05T06:11:30.190Z,98212.91
2022-10-05T06:14:07.745Z,98213.66
2022-10-05T06:16:46.563Z,98213.50
2022-10-05T06:19:24.548Z,98223.69
2022-10-05T06:22:01.655Z,98224.47
2022-10-05T06:24:40.050Z,98223.06
2022-10-05T06:27:29.603Z,98219.97
2022-10-05T06:30:10.352Z,98218.38
2022-10-05T06:33:07.656Z,98210.19
2022-10-05T06:36:03.442Z,98206.91
2022-10-05T06:39:06.029Z,98195.03
2022-10-05T06:41:48.192Z,98201.66
2022-10-05T06:44:24.737Z,98187.41
2022-10-05T06:47:32.200Z,98194.56
2022-10-05T06:50:24.815Z,98190.03
2022-10-05T06:53:32.299Z,98191.94
2022-10-05T06:56:11.183Z,98181.00
2022-10-05T06:58:53.798Z,98180.88
2022-10-05T07:01:40.466Z,98176.25
2022-10-05T07:04:39.149Z,98177.53
2022-10-05T07:07:19.486Z,98175.03
2022-10-05T07:10:06.274Z,98173.41
2022-10-05T07:13:07.550Z,98168.97
2022-10-05T07:15:48.887Z,98174.69
2022-10-05T07:18:43.379Z,98172.97
2022-10-05T07:21:26.812Z,98174.63
2022-10-05T07:24:08.112Z,98171.91
2022-10-05T07:26:46.791Z,98166.53
2022-10-05T07:29:26.626Z,98162.22
2022-10-05T07:32:08.141Z,98160.44
2022-10-05T07:34:53.278Z,98147.13
2022-10-05T07:37:48.577Z,98154.91
2022-10-05T07:40:25.745Z,98150.34
2022-10-05T07:43:10.775Z,98152.97
2022-10-05T07:45:49.930Z,98157.88
2022-10-05T07:48:24.568Z,98157.09
2022-10-05T07:51:03.183Z,98163.81
2022-10-05T07:53:40.911Z,98166.38
2022-10-05T07:56:20.605Z,98164.13
2022-10-05T07:59:03.189Z,98164.78
2022-10-05T08:01:37.859Z,98162.75
2022-10-05T08:04:15.547Z,98166.31
2022-10-05T08:06:55.215Z,98162.25
2022-10-05T08:09:38.569Z,98152.19
2022-10-05T08:12:32.371Z,98156.69
2022-10-05T08:15:15.495Z,98152.19
2022-10-05T08:17:55.029Z,98153.56
2022-10-05T08:20:43.491Z,98147.31
2022-10-05T08:23:25.838Z,98150.09
2022-10-05T08:26:12.672Z,98141.88
2022-10-05T08:28:47.763Z,98144.34
2022-10-05T08:31:26.933Z,98125.69
2022-10-05T08:34:08.261Z,98130.66
2022-10-05T08:36:56.257Z,98131.38
2022-10-05T08:39:31.655Z,98124.75
2022-10-05T08:42:48.226Z,98120.16
2022-10-05T08:45:54.348Z,98118.09
2022-10-05T08:49:04.616Z,98113.84
2022-10-05T08:52:14.264Z,98119.50
2022-10-05T08:55:27.176Z,98107.38
2022-10-05T08:58:40.436Z,98104.53
2022-10-05T09:01:22.656Z,98100.19
2022-10-05T09:04:19.416Z,98092.44
2022-10-05T09:07:17.413Z,98089.88
2022-10-05T09:10:44.281Z,98097.31
2022-10-05T09:13:34.127Z,98092.72
2022-10-05T09:17:03.823Z,98086.09
2022-10-05T09:20:15.200Z,98081.63
2022-10-05T09:23:02.116Z,98083.22
2022-10-05T09:25:46.141Z,98072.28
2022-10-05T09:28:27.718Z,98080.72
2022-10-05T09:31:44.643Z,98081.03
2022-10-05T09:34:57.977Z,98074.53
2022-10-05T09:37:51.193Z,98071.31
2022-10-05T09:41:07.661Z,98078.19
2022-10-05T09:44:14.234Z,98083.03
2022-10-05T09:47:07.716Z,98073.09
2022-10-05T09:50:53.265Z,98071.19
2022-10-05T09:53:52.181Z,98075.31
2022-10-05T09:57:04.328Z,98073.28
2022-10-05T10:00:20.772Z,98084.31
2022-10-05T10:03:45.985Z,98077.34
2022-10-05T10:07:09.210Z,98078.59
2022-10-05T10:09:51.523Z,98078.72
2022-10-05T10:12:54.950Z,98075.22
2022-10-05T10:16:02.525Z,98066.25
2022-10-05T10:19:13.356Z,98082.13
2022-10-05T10:22:08.513Z,98075.97
2022-10-05T10:25:03.360Z,98069.66
2022-10-05T10:28:02.575Z,98093.00
2022-10-05T10:31:12.974Z,98074.53
2022-10-05T10:34:13.316Z,98084.22
2022-10-05T10:37:16.462Z,98069.97
2022-10-05T10:40:23.463Z,98083.03
2022-10-05T10:43:24.856Z,98083.22
2022-10-05T10:46:05.767Z,98082.09
2022-10-05T10:49:09.643Z,98089.78
2022-10-05T10:52:15.967Z,98079.16
2022-10-05T10:55:14.185Z,98079.00
2022-10-05T10:58:15.091Z,98084.72
2022-10-05T11:00:55.793Z,98077.09
2022-10-05T11:04:02.826Z,98080.13
2022-10-05T11:07:19.973Z,98065.16
2022-10-05T11:10:23.687Z,98056.00
2022-10-05T11:13:34.179Z,98056.84
2022-10-05T11:16:34.596Z,98071.28
2022-10-05T11:19:35.067Z,98070.22
2022-10-05T11:22:48.158Z,98078.69
2022-10-05T11:25:54.621Z,98070.69
2022-10-05T11:29:10.775Z,98076.75
2022-10-05T11:32:16.076Z,98076.72
2022-10-05T11:35:34.559Z,98083.13
2022-10-05T11:38:25.015Z,98076.38
2022-10-05T11:41:33.894Z,98069.25
2022-10-05T11:44:30.675Z,98077.88
2022-10-05T11:47:09.848Z,98076.09
2022-10-05T11:49:47.286Z,98071.91
2022-10-05T11:52:26.466Z,98068.94
2022-10-05T11:55:15.274Z,98067.09
2022-10-05T11:57:54.168Z,98059.00
2022-10-05T12:00:27.333Z,98054.75
2022-10-05T12:03:33.453Z,98056.69
2022-10-05T12:06:33.108Z,98053.75
2022-10-05T12:09:28.032Z,98061.03
2022-10-05T12:12:12.658Z,98053.41
2022-10-05T12:14:57.209Z,98051.94
2022-10-05T12:17:36.023Z,98052.41
2022-10-05T12:20:16.154Z,98061.31
2022-10-05T12:22:53.428Z,98059.22
2022-10-05T12:25:30.326Z,98055.28
2022-10-05T12:28:05.061Z,98042.78
2022-10-05T12:31:04.067Z,98046.22
2022-10-05T12:33:42.198Z,98042.03
2022-10-05T12:36:18.381Z,98054.66
2022-10-05T12:38:57.160Z,98041.94
2022-10-05T12:41:36.733Z,98051.56
2022-10-05T12:44:19.782Z,98049.09
2022-10-05T12:47:02.633Z,98048.91
2022-10-05T12:50:05.094Z,98048.22
2022-10-05T12:53:05.125Z,98055.44
2022-10-05T12:55:45.661Z,98048.63
2022-10-05T12:58:32.388Z,98040.56
2022-10-05T13:01:13.074Z,98029.09
2022-10-05T13:03:56.235Z,98042.16
2022-10-05T13:06:39.157Z,98038.56
2022-10-05T13:09:16.563Z,98037.66
2022-10-05T13:11:51.955Z,98034.19
2022-10-05T13:14:45.194Z,98022.56
2022-10-05T13:17:26.883Z,98017.47
2022-10-05T13:20:03.274Z,98018.38
2022-10-05T13:22:39.823Z,98019.44
2022-10-05T13:25:28.694Z,98018.09
2022-10-05T13:28:22.236Z,98030.31
2022-10-05T13:31:06.547Z,98023.69
2022-10-05T13:34:00.579Z,98028.91
2022-10-05T13:36:47.190Z,98020.00
2022-10-05T13:39:44.079Z,98015.03
2022-10-05T13:42:20.963Z,98024.59
2022-10-05T13:44:58.882Z,98014.41
2022-10-05T13:47:37.947Z,98010.81
2022-10-05T13:50:19.646Z,98018.38
2022-10-05T13:53:04.643Z,98014.09
2022-10-05T13:55:45.955Z,98018.81
2022-10-05T13:58:29.251Z,98012.81
2022-10-05T14:01:04.599Z,98005.81
2022-10-05T14:03:37.687Z,98011.44
2022-10-05T14:06:15.918Z,98003.88
2022-10-05T14:08:55.570Z,98012.88
2022-10-05T14:11:33.269Z,98020.91
2022-10-05T14:14:15.515Z,98014.38
2022-10-05T14:16:55.041Z,98019.28
2022-10-05T14:19:30.666Z,98011.19
2022-10-05T14:22:05.616Z,98004.66
2022-10-05T14:24:44.002Z,98009.94
2022-10-05T14:27:27.424Z,98011.47
2022-10-05T14:30:04.895Z,98007.44
2022-10-05T14:32:46.124Z,98005.69
2022-10-05T14:35:20.871Z,98004.50
2022-10-05T14:37:59.803Z,98012.03
2022-10-05T14:40:36.110Z,98011.78
2022-10-05T14:43:23.368Z,97999.84
2022-10-05T14:46:00.953Z,97996.06
2022-10-05T14:48:43.167Z,98000.88
2022-10-05T14:51:18.927Z,98005.16
2022-10-05T14:54:00.850Z,97995.53
2022-10-05T14:56:48.924Z,97999.13
2022-10-05T14:59:43.568Z,97989.94
2022-10-05T15:02:45.324Z,98001.28
2022-10-05T15:05:24.884Z,97990.91
2022-10-05T15:07:59.798Z,97997.66
2022-10-05T15:10:36.592Z,97999.03
2022-10-05T15:13:18.478Z,97996.28
2022-10-05T15:15:55.057Z,97999.00
2022-10-05T15:18:46.182Z,98005.00
2022-10-05T15:21:42.441Z,98009.25
2022-10-05T15:24:20.332Z,98012.63
2022-10-05T15:26:53.932Z,98006.31
2022-10-05T15:29:52.010Z,98008.13
2022-10-05T15:32:41.760Z,98002.91
2022-10-05T15:35:57.190Z,98005.66
2022-10-05T15:38:30.653Z,97995.50
2022-10-05T15:41:10.547Z,98006.41
2022-10-05T15:44:00.663Z,97996.31
2022-10-05T15:46:38.997Z,98005.84
2022-10-05T15:49:25.960Z,98001.53
2022-10-05T15:52:08.013Z,98005.53
2022-10-05T15:55:08.289Z,98016.28
2022-10-05T15:57:48.410Z,98005.84
2022-10-05T16:00:22.234Z,98019.22
2022-10-05T16:03:09.689Z,98008.50
2022-10-05T16:05:59.535Z,98000.16
2022-10-05T16:08:56.823Z,98003.19
2022-10-05T16:11:50.432Z,98007.53
2022-10-05T16:14:35.498Z,98008.00
2022-10-05T16:17:23.801Z,98006.28
2022-10-05T16:20:14.792Z,98014.31
2022-10-05T16:22:59.800Z,98006.41
2022-10-05T16:25:44.250Z,98010.94
2022-10-05T16:28:29.290Z,98009.28
2022-10-05T16:31:09.063Z,98012.97
2022-10-05T16:33:55.914Z,98011.34
2022-10-05T16:36:44.601Z,98008.66
2022-10-05T16:39:23.751Z,98013.09
2022-10-05T16:42:05.555Z,98016.00
2022-10-05T16:44:46.000Z,98019.03
2022-10-05T16:47:40.043Z,98017.22
2022-10-05T16:50:24.879Z,98021.03
2022-10-05T16:53:04.939Z,98020.09
2022-10-05T16:55:40.563Z,98013.19
2022-10-05T16:58:24.018Z,98013.78
2022-10-05T17:01:11.549Z,98014.59
2022-10-05T17:04:00.244Z,98015.69
2022-10-05T17:07:00.924Z,98017.97
2022-10-05T17:09:58.722Z,98019.81
2022-10-05T17:12:50.793Z,98022.16
2022-10-05T17:15:44.504Z,98014.28
2022-10-05T17:18:50.991Z,98031.13
2022-10-05T17:21:28.737Z,98031.38
2022-10-05T17:24:21.702Z,98037.00
2022-10-05T17:27:20.662Z,98030.44
2022-10-05T17:29:54.735Z,98036.09
2022-10-05T17:32:43.374Z,98030.25
2022-10-05T17:35:22.673Z,98040.50
2022-10-05T17:38:15.730Z,98029.13
2022-10-05T17:41:21.865Z,98037.31
2022-10-05T17:44:30.822Z,98027.66
2022-10-05T17:47:04.102Z,98033.53
2022-10-05T17:50:12.706Z,98030.22
2022-10-05T17:52:59.977Z,98029.47
2022-10-05T17:55:50.199Z,98035.09
2022-10-05T17:59:06.782Z,98025.72
2022-10-05T18:01:42.791Z,98042.75
2022-10-05T18:04:42.959Z,98046.34
2022-10-05T18:07:26.668Z,98041.22
2022-10-05T18:10:01.200Z,98044.53
2022-10-05T18:12:48.024Z,98045.53
2022-10-05T18:15:45.873Z,98053.91
2022-10-05T18:18:59.382Z,98049.59
2022-10-05T18:21:38.571Z,98057.28
2022-10-05T18:24:53.216Z,98048.31
2022-10-05T18:27:48.178Z,98052.69
2022-10-05T18:30:25.327Z,98054.69
2022-10-05T18:33:32.170Z,98051.41
2022-10-05T18:36:24.520Z,98050.13
2022-10-05T18:39:04.291Z,98060.81
2022-10-05T18:41:49.301Z,98055.97
2022-10-05T18:44:34.840Z,98059.81
2022-10-05T18:47:16.749Z,98052.22
2022-10-05T18:50:02.068Z,98057.09
2022-10-05T18:52:49.854Z,98056.81
2022-10-05T18:55:32.916Z,98062.91
2022-10-05T18:58:27.131Z,98061.63
2022-10-05T19:01:27.174Z,98068.28
2022-10-05T19:04:12.843Z,98066.72
2022-10-05T19:06:56.886Z,98065.94
2022-10-05T19:10:00.413Z,98070.00
2022-10-05T19:12:47.575Z,98069.00
2022-10-05T19:15:28.431Z,98071.78
2022-10-05T19:18:15.287Z,98069.22
2022-10-05T19:20:56.770Z,98072.56
2022-10-05T19:23:54.048Z,98076.63
2022-10-05T19:26:49.962Z,98067.16
2022-10-05T19:29:38.798Z,98078.41
2022-10-05T19:32:21.546Z,98075.06
2022-10-05T19:35:08.951Z,98061.03
2022-10-05T19:37:50.145Z,98069.44
2022-10-05T19:40:31.114Z,98073.50
2022-10-05T19:43:23.606Z,98072.97
2022-10-05T19:46:19.013Z,98085.22
2022-10-05T19:48:53.569Z,98074.25
2022-10-05T19:51:32.706Z,98083.97
2022-10-05T19:54:08.016Z,98093.38
2022-10-05T19:56:52.953Z,98090.03
2022-10-05T19:59:31.538Z,98089.78
2022-10-05T20:02:04.364Z,98105.34
2022-10-05T20:04:38.313Z,98109.19
2022-10-05T20:07:11.010Z,98106.59
2022-10-05T20:09:59.577Z,98118.59
2022-10-05T20:12:51.480Z,98114.75
2022-10-05T20:15:40.255Z,98122.41
2022-10-05T20:18:54.820Z,98129.53
2022-10-05T20:21:47.444Z,98128.78
2022-10-05T20:24:20.348Z,98127.47
2022-10-05T20:27:05.838Z,98140.97
2022-10-05T20:29:38.686Z,98145.06
2022-10-05T20:32:13.842Z,98141.50
2022-10-05T20:34:47.199Z,98145.31
2022-10-05T20:37:20.211Z,98150.94
2022-10-05T20:39:51.320Z,98151.44
2022-10-05T20:42:23.989Z,98150.94
2022-10-05T20:44:56.914Z,98156.81
2022-10-05T20:47:30.189Z,98163.44
2022-10-05T20:50:01.294Z,98156.28
2022-10-05T20:52:31.489Z,98161.13
2022-10-05T20:55:02.068Z,98160.63
2022-10-05T20:57:32.605Z,98171.59
2022-10-05T21:00:02.784Z,98169.56
2022-10-05T21:02:36.145Z,98167.50
2022-10-05T21:05:07.852Z,98167.28
2022-10-05T21:07:38.155Z,98167.00
2022-10-05T21:10:09.841Z,98168.78
2022-10-05T21:12:40.077Z,98171.09
2022-10-05T21:15:12.527Z,98173.63
2022-10-05T21:17:45.329Z,98177.47
2022-10-05T21:20:15.765Z,98175.91
2022-10-05T21:22:45.960Z,98183.81
2022-10-05T21:25:16.256Z,98177.72
2022-10-05T21:27:46.547Z,98181.78
2022-10-05T21:30:17.008Z,98187.13
2022-10-05T21:32:49.917Z,98186.34
2022-10-05T21:35:20.099Z,98193.50
2022-10-05T21:37:50.283Z,98190.19
2022-10-05T21:40:20.505Z,98200.91
2022-10-05T21:42:50.704Z,98204.19
2022-10-05T21:45:20.854Z,98203.66
2022-10-05T21:47:53.883Z,98194.22
2022-10-05T21:50:24.107Z,98199.56
2022-10-05T21:52:54.841Z,98199.03
2022-10-05T21:55:24.736Z,98207.19
2022-10-05T21:57:55.220Z,98215.88
2022-10-05T22:00:25.551Z,98206.72
2022-10-05T22:02:58.434Z,98218.97
2022-10-05T22:05:28.764Z,98212.84
2022-10-05T22:07:59.013Z,98217.19
2022-10-05T22:10:29.259Z,98212.56
2022-10-05T22:13:03.484Z,98219.69
2022-10-05T22:15:34.397Z,98219.72
2022-10-05T22:18:07.347Z,98221.00
2022-10-05T22:20:37.775Z,98220.50
2022-10-05T22:23:07.933Z,98226.34
2022-10-05T22:25:38.321Z,98224.59
2022-10-05T22:28:12.414Z,98229.44
2022-10-05T22:30:43.038Z,98233.50
2022-10-05T22:33:15.964Z,98236.56
2022-10-05T22:35:46.525Z,98248.00
2022-10-05T22:38:16.659Z,98246.75
2022-10-05T22:40:46.848Z,98256.97
2022-10-05T22:43:17.013Z,98258.97
2022-10-05T22:45:47.219Z,98263.06
2022-10-05T22:48:20.133Z,98269.94
2022-10-05T22:50:50.465Z,98266.38
2022-10-05T22:53:20.883Z,98269.16
2022-10-05T22:55:50.995Z,98265.88
2022-10-05T22:58:21.219Z,98278.84
2022-10-05T23:00:58.450Z,98287.78
2022-10-05T23:03:31.606Z,98291.59
2022-10-05T23:06:03.836Z,98288.03
2022-10-05T23:08:35.170Z,98296.44
2022-10-05T23:11:06.362Z,98287.03
2022-10-05T23:13:36.603Z,98294.94
2022-10-05T23:16:11.260Z,98300.00
2022-10-05T23:18:44.780Z,98297.72
2022-10-05T23:21:14.998Z,98297.97
2022-10-05T23:23:49.070Z,98302.03
2022-10-05T23:26:21.364Z,98300.00
2022-10-05T23:28:52.097Z,98304.31
2022-10-05T23:31:24.697Z,98304.31
2022-10-05T23:33:57.942Z,98300.78
2022-10-05T23:36:32.392Z,98309.19
2022-10-05T23:39:03.055Z,98314.03
2022-10-05T23:41:33.267Z,98315.28
2022-10-05T23:44:03.493Z,98314.53
2022-10-05T23:46:33.683Z,98307.13
2022-10-05T23:49:07.113Z,98307.13
2022-10-05T23:51:37.360Z,98302.81
2022-10-05T23:54:07.801Z,98310.97
2022-10-05T23:56:37.991Z,98308.41
2022-10-05T23:59:08.133Z,98310.69
